Time;durP1;ratioP1;P1;durP2;ratioP2;P2;SDS_P1;SDS_P2;PMS_P1;PMS_P2;Temp;Humidity;BMP_temperature;BMP_pressure;BME280_temperature;BME280_humidity;BME280_pressure;Samples;Min_cycle;Max_cycle;Signal;HPM_P1;HPM_P2
2024/04/09 00:01:31;;;;;;;0.10;0.10;;;;;;;8.85;67.79;99507.75;7356366;19;20014;-63
2024/04/09 00:03:57;;;;;;;0.10;0.10;;;;;;;8.92;67.82;99519.69;7342908;19;20014;-61
2024/04/09 00:06:22;;;;;;;0.00;0.00;;;;;;;8.93;67.51;99526.56;7359708;19;20010;-61
2024/04/09 00:08:48;;;;;;;0.08;0.08;;;;;;;8.92;67.72;99518.78;7358697;19;20462;-62
2024/04/09 00:11:22;;;;;;;0.10;0.10;;;;;;;8.90;67.77;99518.00;7353356;19;20782;-62
2024/04/09 00:13:48;;;;;;;0.10;0.10;;;;;;;8.93;67.37;99525.72;7359181;19;20011;-62
2024/04/09 00:16:14;;;;;;;0.00;0.00;;;;;;;8.94;67.55;99528.28;7356290;19;20030;-63
2024/04/09 00:18:39;;;;;;;0.10;0.10;;;;;;;8.96;66.84;99530.81;7355967;19;20010;-62
2024/04/09 00:21:04;;;;;;;0.10;0.10;;;;;;;8.94;66.70;99543.91;7359839;19;20014;-62
2024/04/09 00:23:30;;;;;;;0.10;0.10;;;;;;;8.95;67.10;99550.78;7355940;19;20577;-62
2024/04/09 00:25:55;;;;;;;0.10;0.10;;;;;;;8.79;66.50;99528.78;7359626;19;20011;-62
2024/04/09 00:28:21;;;;;;;0.10;0.10;;;;;;;8.94;66.67;99554.31;7355671;19;20014;-62
2024/04/09 00:30:46;;;;;;;0.10;0.10;;;;;;;8.93;66.53;99570.84;7355146;19;20371;-62
2024/04/09 00:33:17;;;;;;;0.10;0.10;;;;;;;8.92;66.55;99576.06;7355928;19;20017;-62
2024/04/09 00:35:43;;;;;;;0.00;0.00;;;;;;;8.82;66.86;99557.34;7367213;19;20014;-63
2024/04/09 00:38:08;;;;;;;0.10;0.10;;;;;;;8.80;66.78;99556.53;7361959;19;20013;-62
2024/04/09 00:40:36;;;;;;;0.10;0.10;;;;;;;8.73;67.37;99544.63;7365457;19;20026;-63
2024/04/09 00:43:02;;;;;;;0.10;0.10;;;;;;;8.72;67.20;99529.91;7363700;19;20006;-62
2024/04/09 00:45:29;;;;;;;0.05;0.05;;;;;;;8.96;66.98;99573.31;7368867;19;20022;-61
2024/04/09 00:47:56;;;;;;;0.00;0.00;;;;;;;8.92;67.38;99557.84;7353751;19;20589;-62
2024/04/09 00:50:24;;;;;;;0.00;0.00;;;;;;;8.98;67.49;99566.31;7363143;19;20015;-62
2024/04/09 00:52:51;;;;;;;0.10;0.10;;;;;;;8.93;67.28;99563.03;7360376;19;20007;-63
2024/04/09 00:55:17;;;;;;;0.10;0.10;;;;;;;9.00;67.05;99567.09;7365858;19;20498;-62
2024/04/09 00:57:48;;;;;;;0.03;0.03;;;;;;;9.01;67.29;99566.19;7364674;19;20010;-63
2024/04/09 01:00:14;;;;;;;0.10;0.10;;;;;;;8.98;67.27;99566.31;7366846;19;20546;-62
2024/04/09 01:02:41;;;;;;;0.10;0.10;;;;;;;9.00;67.57;99568.88;7360782;19;20024;-62
2024/04/09 01:05:07;;;;;;;0.10;0.10;;;;;;;8.90;67.45;99557.91;7359774;19;20018;-62
2024/04/09 01:07:33;;;;;;;0.10;0.10;;;;;;;9.00;67.49;99564.50;7358642;19;20711;-62
2024/04/09 01:09:59;;;;;;;0.10;0.10;;;;;;;9.00;67.62;99569.72;7362660;19;20097;-62
2024/04/09 01:12:25;;;;;;;0.10;0.10;;;;;;;9.00;67.62;99564.50;7363659;19;20028;-62
2024/04/09 01:14:50;;;;;;;0.10;0.10;;;;;;;9.02;67.62;99567.94;7363417;19;20014;-63
2024/04/09 01:17:16;;;;;;;0.10;0.10;;;;;;;8.92;67.85;99545.72;7364057;19;20086;-62
2024/04/09 01:19:46;;;;;;;0.10;0.10;;;;;;;9.04;68.02;99576.53;7369789;19;20358;-62
2024/04/09 03:05:12;;;;;;;0.10;0.10;;;;;;;8.75;69.83;99631.31;7363260;19;20048;-63
2024/04/09 03:07:38;;;;;;;0.10;0.10;;;;;;;8.88;69.67;99653.44;7356660;19;20011;-62
2024/04/09 03:10:04;;;;;;;0.03;0.03;;;;;;;9.07;69.50;99691.00;7360482;19;20006;-62
2024/04/09 03:12:29;;;;;;;0.10;0.10;;;;;;;8.99;69.64;99677.38;7362761;19;20359;-61
2024/04/09 03:14:55;;;;;;;0.10;0.10;;;;;;;9.03;69.32;99685.94;7335830;19;20041;-62
2024/04/09 03:17:20;;;;;;;0.00;0.00;;;;;;;8.95;70.03;99675.78;7365027;19;20048;-62
2024/04/09 03:19:49;;;;;;;0.10;0.10;;;;;;;9.09;69.61;99703.97;7360540;19;20015;-62
2024/04/09 04:05:18;;;;;;;0.10;0.10;;;;;;;9.02;69.27;99781.47;7359717;19;20018;-62
2024/04/09 04:07:44;;;;;;;0.10;0.10;;;;;;;9.02;69.13;99770.16;7358771;19;20090;-62
2024/04/09 04:10:09;;;;;;;0.10;0.10;;;;;;;9.03;69.35;99782.31;7361577;19;20955;-62
2024/04/09 04:12:35;;;;;;;0.10;0.10;;;;;;;8.97;69.63;99770.31;7369915;19;20053;-62
2024/04/09 04:15:00;;;;;;;0.00;0.00;;;;;;;9.00;69.50;99783.22;7371372;19;20796;-62
2024/04/09 04:17:26;;;;;;;0.10;0.10;;;;;;;9.00;69.04;99778.03;7363839;19;20015;-62
2024/04/09 04:19:52;;;;;;;0.10;0.10;;;;;;;8.97;69.08;99777.25;7366952;19;20014;-62
2024/04/09 04:22:17;;;;;;;0.10;0.10;;;;;;;9.00;69.11;99785.84;7366524;19;20090;-62
2024/04/09 04:24:43;;;;;;;0.08;0.08;;;;;;;8.97;68.96;99788.56;7369491;19;20009;-62
2024/04/09 04:27:08;;;;;;;0.10;0.10;;;;;;;9.00;69.05;99793.66;7367678;19;20014;-61
2024/04/09 04:29:34;;;;;;;0.10;0.10;;;;;;;9.00;69.59;99798.84;7364848;19;20567;-63
2024/04/09 04:31:59;;;;;;;0.08;0.08;;;;;;;8.86;68.78;99775.00;7370155;19;20017;-63
2024/04/09 04:34:24;;;;;;;0.03;0.03;;;;;;;8.99;68.69;99802.38;7367728;19;20021;-63
2024/04/09 04:36:50;;;;;;;0.10;0.10;;;;;;;8.97;69.04;99804.19;7370486;19;20097;-63
2024/04/09 04:39:15;;;;;;;0.10;0.10;;;;;;;8.98;69.26;99813.69;7364688;19;20002;-63
2024/04/09 04:41:41;;;;;;;0.00;0.00;;;;;;;8.95;69.26;99811.16;7365540;19;20015;-62
2024/04/09 04:44:06;;;;;;;0.10;0.10;;;;;;;8.98;68.84;99820.66;7369850;19;20040;-62
2024/04/09 04:46:31;;;;;;;0.10;0.10;;;;;;;8.96;68.92;99828.50;7362903;19;20517;-62
2024/04/09 04:48:57;;;;;;;0.00;0.00;;;;;;;8.94;68.89;99821.63;7362923;19;20010;-62
2024/04/09 04:51:22;;;;;;;0.10;0.10;;;;;;;8.93;69.21;99820.78;7370552;19;20010;-62
2024/04/09 04:53:47;;;;;;;0.00;0.00;;;;;;;8.93;69.10;99828.59;7360573;19;20022;-62
2024/04/09 04:56:13;;;;;;;0.10;0.10;;;;;;;8.80;68.62;99814.22;7366813;19;20003;-62
2024/04/09 04:58:38;;;;;;;0.10;0.10;;;;;;;8.92;68.84;99847.72;7366193;19;20771;-62
2024/04/09 05:01:08;;;;;;;0.10;0.10;;;;;;;8.80;68.66;99827.25;7366617;19;20018;-63
2024/04/09 05:03:34;;;;;;;0.10;0.10;;;;;;;8.90;68.65;99844.31;7359090;19;20093;-63
2024/04/09 05:06:07;;;;;;;0.10;0.10;;;;;;;8.90;68.35;99840.84;7370929;19;20034;-62
2024/04/09 05:08:33;;;;;;;0.10;0.10;;;;;;;8.86;68.82;99847.88;7351452;19;20490;-62
2024/04/09 05:10:58;;;;;;;0.10;0.10;;;;;;;8.84;68.75;99847.09;7367782;19;20601;-62
2024/04/09 05:13:23;;;;;;;0.10;0.10;;;;;;;8.80;68.83;99850.69;7369127;19;20846;-62
2024/04/09 05:15:49;;;;;;;0.10;0.10;;;;;;;8.67;68.72;99828.50;7367863;19;20011;-62
2024/04/09 05:18:14;;;;;;;0.03;0.03;;;;;;;8.76;68.73;99854.25;7360117;19;20019;-62
2024/04/09 05:20:41;;;;;;;0.10;0.10;;;;;;;8.77;68.57;99864.66;7365039;19;20010;-61
2024/04/09 05:23:07;;;;;;;0.00;0.00;;;;;;;8.76;68.36;99867.28;7369058;19;20017;-62
2024/04/09 05:25:33;;;;;;;0.10;0.10;;;;;;;8.74;68.63;99866.47;7368288;19;22292;-62
2024/04/09 05:27:59;;;;;;;0.10;0.10;;;;;;;8.73;68.23;99862.16;7358734;19;20011;-62
2024/04/09 05:30:24;;;;;;;0.10;0.10;;;;;;;8.66;68.21;99868.44;7364875;19;20009;-62
2024/04/09 05:32:49;;;;;;;0.00;0.00;;;;;;;8.69;68.26;99876.16;7370359;19;20015;-62
2024/04/09 05:35:15;;;;;;;0.10;0.10;;;;;;;8.66;68.66;99876.25;7353868;19;20007;-62
2024/04/09 05:37:42;;;;;;;0.10;0.10;;;;;;;8.67;68.33;99885.75;7366481;19;20766;-62
2024/04/09 05:40:10;;;;;;;0.10;0.10;;;;;;;8.65;68.03;99879.75;7365088;19;20010;-62
2024/04/09 05:42:46;;;;;;;0.00;0.00;;;;;;;8.61;68.22;99884.16;7368512;19;20014;-62
2024/04/09 05:45:17;;;;;;;0.10;0.10;;;;;;;8.61;68.36;99883.31;7369110;19;20110;-62
2024/04/09 05:47:43;;;;;;;0.10;0.10;;;;;;;8.60;68.36;99889.44;7356340;19;20072;-62
2024/04/09 05:50:09;;;;;;;0.10;0.10;;;;;;;8.57;68.00;99891.22;7365422;19;20006;-61
2024/04/09 05:52:36;;;;;;;0.10;0.10;;;;;;;8.44;68.03;99882.03;7365390;19;20011;-62
2024/04/09 05:55:01;;;;;;;0.10;0.10;;;;;;;8.50;68.12;99887.06;7365063;19;20770;-61
2024/04/09 05:57:32;;;;;;;0.10;0.10;;;;;;;8.47;67.92;99900.19;7365601;19;20022;-62
2024/04/09 05:59:57;;;;;;;0.10;0.10;;;;;;;8.48;68.36;99903.63;7362659;19;20038;-63
2024/04/09 06:02:23;;;;;;;0.10;0.10;;;;;;;8.46;68.05;99905.41;7365272;19;20014;-62
2024/04/09 06:04:48;;;;;;;0.10;0.10;;;;;;;8.44;68.48;99909.81;7365040;19;20022;-63
2024/04/09 06:07:14;;;;;;;0.10;0.10;;;;;;;8.32;67.87;99904.00;7363198;19;20042;-62
2024/04/09 06:09:39;;;;;;;0.00;0.00;;;;;;;8.42;67.89;99930.66;7362530;19;20351;-63
2024/04/09 06:12:05;;;;;;;0.10;0.10;;;;;;;8.27;68.14;99910.22;7358714;19;19995;-62
2024/04/09 06:14:30;;;;;;;0.10;0.10;;;;;;;8.38;68.15;99934.25;7365331;19;20010;-61
2024/04/09 06:16:55;;;;;;;0.10;0.10;;;;;;;8.28;68.00;99917.13;7367238;19;20102;-62
2024/04/09 06:19:21;;;;;;;0.08;0.08;;;;;;;8.34;67.76;99937.78;7361848;19;20856;-63
2024/04/09 06:21:46;;;;;;;0.10;0.10;;;;;;;8.34;68.42;99942.97;7363677;19;20813;-63
2024/04/09 06:24:12;;;;;;;0.08;0.08;;;;;;;8.25;68.20;99927.59;7360164;19;20010;-62
2024/04/09 06:26:37;;;;;;;0.10;0.10;;;;;;;8.32;67.84;99944.78;7365870;19;20022;-61
2024/04/09 06:29:04;;;;;;;0.08;0.08;;;;;;;8.13;67.69;99927.94;7362653;19;20036;-61
2024/04/09 06:31:29;;;;;;;0.00;0.00;;;;;;;8.17;68.17;99940.81;7363402;19;20014;-62
2024/04/09 06:33:55;;;;;;;0.10;0.10;;;;;;;8.27;67.88;99968.31;7363649;19;20014;-62
2024/04/09 06:36:20;;;;;;;0.10;0.10;;;;;;;8.26;68.34;99960.50;7363128;19;20443;-62
2024/04/09 06:38:46;;;;;;;0.10;0.10;;;;;;;8.25;68.06;99964.03;7366263;19;20017;-62
2024/04/09 06:41:11;;;;;;;0.00;0.00;;;;;;;8.24;68.32;99970.13;7354803;19;20023;-63
2024/04/09 06:43:37;;;;;;;0.10;0.10;;;;;;;8.22;68.34;99970.16;7361856;19;20014;-62
2024/04/09 06:46:03;;;;;;;0.00;0.00;;;;;;;8.19;67.86;99979.78;7363559;19;20399;-62
2024/04/09 06:48:28;;;;;;;0.10;0.10;;;;;;;8.22;67.77;99995.31;7363920;19;20044;-62
2024/04/09 06:50:54;;;;;;;0.00;0.00;;;;;;;8.18;68.21;99991.09;7362392;19;20027;-62
2024/04/09 06:53:20;;;;;;;0.10;0.10;;;;;;;8.20;67.73;99999.69;7358953;19;20006;-63
2024/04/09 06:55:45;;;;;;;0.10;0.10;;;;;;;8.16;67.77;100013.66;7361411;19;20040;-62
2024/04/09 06:58:11;;;;;;;0.00;0.00;;;;;;;8.18;67.92;100014.50;7357975;19;20700;-62
2024/04/09 07:00:36;;;;;;;0.10;0.10;;;;;;;8.18;67.70;100027.50;7361333;19;20011;-62
2024/04/09 07:03:04;;;;;;;0.10;0.10;;;;;;;8.14;68.03;100023.25;7361843;19;20002;-62
2024/04/09 07:05:33;;;;;;;0.00;0.00;;;;;;;8.13;67.65;100024.16;7356961;19;20014;-63
2024/04/09 07:08:05;;;;;;;0.00;0.00;;;;;;;8.06;68.10;100020.84;7365399;19;20494;-62
2024/04/09 07:10:31;;;;;;;0.10;0.10;;;;;;;8.09;67.80;100046.75;7361655;19;20014;-63
2024/04/09 07:13:00;;;;;;;0.10;0.10;;;;;;;8.07;67.99;100032.94;7361204;19;20010;-62
2024/04/09 07:15:26;;;;;;;0.00;0.00;;;;;;;8.06;68.11;100042.50;7364220;19;20025;-62
2024/04/09 07:17:55;;;;;;;0.00;0.00;;;;;;;8.06;68.04;100045.09;7364245;19;20014;-62
2024/04/09 07:20:21;;;;;;;0.00;0.00;;;;;;;8.03;68.14;100052.94;7360323;19;20015;-62
2024/04/09 07:22:46;;;;;;;0.00;0.00;;;;;;;7.80;67.94;100018.81;7362395;19;20007;-62
2024/04/09 07:25:12;;;;;;;0.00;0.00;;;;;;;8.02;68.04;100066.84;7356074;19;20114;-62
2024/04/09 07:27:39;;;;;;;0.10;0.10;;;;;;;8.03;67.99;100067.69;7361715;19;20036;-62
2024/04/09 07:30:06;;;;;;;0.05;0.05;;;;;;;8.02;68.37;100061.66;7367042;19;20019;-62
2024/04/09 07:32:31;;;;;;;0.10;0.10;;;;;;;8.03;68.06;100067.69;7357085;19;20044;-63
2024/04/09 07:34:57;;;;;;;0.10;0.10;;;;;;;8.02;68.12;100077.25;7360938;19;20089;-62
2024/04/09 07:37:23;;;;;;;0.00;0.00;;;;;;;8.04;67.97;100066.81;7361626;19;20010;-62
2024/04/09 07:39:49;;;;;;;0.10;0.10;;;;;;;8.04;68.26;100077.22;7355697;19;20790;-62
2024/04/09 07:42:15;;;;;;;0.10;0.10;;;;;;;8.07;68.76;100085.81;7346714;19;20010;-63
2024/04/09 07:44:40;;;;;;;0.10;0.10;;;;;;;8.07;67.99;100091.00;7353372;19;20010;-63
2024/04/09 07:47:10;;;;;;;0.10;0.10;;;;;;;8.13;68.34;100099.56;7371184;19;20861;-63
2024/04/09 07:49:36;;;;;;;0.10;0.10;;;;;;;8.14;68.04;100086.50;7369151;19;20003;-62
2024/04/09 07:52:03;;;;;;;0.10;0.10;;;;;;;8.19;68.72;100100.28;7368942;19;20534;-62
2024/04/09 07:54:28;;;;;;;0.10;0.10;;;;;;;8.24;68.35;100102.78;7361883;19;20023;-63
2024/04/09 07:56:54;;;;;;;0.00;0.00;;;;;;;8.28;68.74;100109.63;7360161;19;20018;-63
2024/04/09 07:59:19;;;;;;;0.10;0.10;;;;;;;8.33;68.17;100112.97;7371771;19;20036;-62
2024/04/09 08:01:45;;;;;;;0.10;0.10;;;;;;;8.38;68.37;100121.56;7368283;19;20044;-62
2024/04/09 08:04:10;;;;;;;0.10;0.10;;;;;;;8.01;68.42;100054.75;7369568;19;20018;-62
2024/04/09 08:06:36;;;;;;;0.10;0.10;;;;;;;8.51;68.65;100146.38;7363579;19;20006;-61
2024/04/09 08:09:01;;;;;;;0.00;0.00;;;;;;;8.55;68.23;100140.22;7368632;19;20022;-62
2024/04/09 08:11:27;;;;;;;0.10;0.10;;;;;;;8.60;68.39;100157.47;7367827;19;20919;-62
2024/04/09 08:13:52;;;;;;;0.00;0.00;;;;;;;8.67;68.45;100148.63;7369692;19;20022;-62
2024/04/09 08:16:17;;;;;;;0.00;0.00;;;;;;;8.67;68.12;100143.41;7371420;19;20022;-62
2024/04/09 08:18:43;;;;;;;0.10;0.10;;;;;;;8.80;68.24;100147.44;7368027;19;20027;-61
2024/04/09 08:21:10;;;;;;;0.10;0.10;;;;;;;8.84;68.09;100151.69;7368062;19;20019;-62
2024/04/09 08:23:35;;;;;;;0.10;0.10;;;;;;;8.92;68.09;100169.72;7369192;19;20026;-63
2024/04/09 08:26:00;;;;;;;0.10;0.10;;;;;;;8.96;67.70;100172.22;7367993;19;20027;-63
2024/04/09 08:28:26;;;;;;;0.10;0.10;;;;;;;9.01;67.81;100185.97;7362053;19;20006;-62
2024/04/09 08:30:52;;;;;;;0.10;0.10;;;;;;;9.07;68.05;100193.66;7365979;19;20010;-62
2024/04/09 08:33:17;;;;;;;0.10;0.10;;;;;;;9.12;67.79;100187.47;7367453;19;20021;-62
2024/04/09 08:35:47;;;;;;;0.10;0.10;;;;;;;9.25;67.63;100201.91;7370906;19;20106;-61
2024/04/09 08:38:13;;;;;;;0.10;0.10;;;;;;;9.30;67.54;100200.88;7364981;19;20015;-62
2024/04/09 08:40:39;;;;;;;0.10;0.10;;;;;;;9.40;67.69;100204.13;7369228;19;20022;-62
2024/04/09 08:43:05;;;;;;;0.10;0.10;;;;;;;9.53;67.67;100202.91;7367441;19;20232;-62
2024/04/09 08:45:31;;;;;;;0.10;0.10;;;;;;;9.72;67.54;100199.78;7368318;19;20477;-62
2024/04/09 08:47:59;;;;;;;0.10;0.10;;;;;;;9.91;67.19;100211.44;7366173;19;20526;-62
2024/04/09 08:50:25;;;;;;;0.10;0.10;;;;;;;9.96;66.55;100209.56;7369524;19;21078;-63
2024/04/09 08:52:57;;;;;;;0.10;0.10;;;;;;;10.20;66.72;100217.59;7366112;19;20014;-62
2024/04/09 08:55:22;;;;;;;0.10;0.10;;;;;;;10.37;66.94;100231.88;7369328;19;20692;-63
2024/04/09 08:57:48;;;;;;;0.10;0.10;;;;;;;10.55;66.33;100233.09;7364248;19;20556;-62
2024/04/09 09:00:16;;;;;;;0.10;0.10;;;;;;;10.65;65.98;100216.25;7366005;19;20983;-62
2024/04/09 09:02:41;;;;;;;0.10;0.10;;;;;;;10.88;65.41;100248.63;7369692;19;20018;-63
2024/04/09 09:05:17;;;;;;;0.10;0.10;;;;;;;11.13;66.18;100249.56;7362801;19;20020;-63
2024/04/09 09:07:43;;;;;;;0.10;0.10;;;;;;;11.25;65.66;100248.31;7363919;19;20026;-62
2024/04/09 09:10:10;;;;;;;0.10;0.10;;;;;;;11.43;65.12;100263.41;7365581;19;20002;-62
2024/04/09 09:12:35;;;;;;;0.10;0.10;;;;;;;11.57;64.29;100257.72;7369370;19;20022;-62
2024/04/09 09:15:01;;;;;;;0.10;0.10;;;;;;;11.67;63.37;100256.50;7366891;19;20019;-61
2024/04/09 09:17:30;;;;;;;0.10;0.10;;;;;;;11.76;63.15;100263.19;7342173;19;20072;-62
2024/04/09 09:20:09;;;;;;;0.10;0.10;;;;;;;11.81;63.26;100274.34;7358595;19;20022;-63
2024/04/09 09:22:42;;;;;;;0.10;0.10;;;;;;;11.87;63.94;100283.75;7364108;19;20006;-63
2024/04/09 09:25:15;;;;;;;0.10;0.10;;;;;;;11.95;62.79;100297.41;7363346;19;20488;-62
2024/04/09 09:27:41;;;;;;;0.10;0.10;;;;;;;11.98;62.66;100293.84;7359059;19;20020;-62
2024/04/09 09:30:07;;;;;;;0.10;0.10;;;;;;;12.06;62.88;100295.25;7362718;19;20343;-62
2024/04/09 09:32:39;;;;;;;0.10;0.10;;;;;;;12.10;63.10;100273.31;7366777;19;21193;-62
2024/04/09 09:35:11;;;;;;;0.10;0.10;;;;;;;12.31;61.83;100305.72;7365004;19;20476;-63
2024/04/09 09:37:37;;;;;;;0.10;0.10;;;;;;;12.30;62.04;100304.03;7364478;19;20031;-63
2024/04/09 09:40:07;;;;;;;0.10;0.10;;;;;;;12.49;62.35;100314.69;7368013;19;20482;-62
2024/04/09 09:42:34;;;;;;;0.10;0.10;;;;;;;12.49;60.61;100306.81;7365566;19;20007;-62
2024/04/09 09:45:03;;;;;;;0.10;0.10;;;;;;;12.62;60.98;100326.44;7366838;19;20090;-62
2024/04/09 09:47:32;;;;;;;0.10;0.10;;;;;;;12.70;61.05;100339.22;7361572;19;20777;-63
2024/04/09 09:49:59;;;;;;;0.10;0.10;;;;;;;12.78;60.14;100339.81;7360473;19;20010;-62
2024/04/09 09:52:24;;;;;;;0.10;0.10;;;;;;;12.86;59.88;100340.34;7366848;19;20018;-62
2024/04/09 09:54:50;;;;;;;0.10;0.10;;;;;;;12.85;59.94;100343.91;7366869;19;20908;-62
2024/04/09 09:57:21;;;;;;;0.10;0.10;;;;;;;13.06;60.46;100352.69;7364162;19;20026;-62
2024/04/09 09:59:59;;;;;;;0.10;0.10;;;;;;;13.09;60.03;100349.13;7365873;19;20536;-62
2024/04/09 10:02:26;;;;;;;;;;;;;;;13.33;62.31;100353.44;7365332;19;20881;-62
2024/04/09 10:04:55;;;;;;;0.10;0.10;;;;;;;13.11;58.71;100319.28;7360792;19;19922;-62
2024/04/09 10:07:22;;;;;;;0.10;0.10;;;;;;;13.32;58.22;100348.25;7361109;19;20694;-62
2024/04/09 10:09:53;;;;;;;0.10;0.10;;;;;;;13.43;57.77;100373.16;7362971;19;20018;-62
2024/04/09 10:12:29;;;;;;;0.10;0.10;;;;;;;13.47;58.76;100374.72;7364458;19;20069;-63
2024/04/09 10:15:05;;;;;;;0.10;0.10;;;;;;;13.49;59.05;100377.28;7364391;19;20007;-61
2024/04/09 10:17:47;;;;;;;0.10;0.10;;;;;;;13.59;59.44;100397.00;7367032;19;20021;-63
2024/04/09 10:20:31;;;;;;;0.10;0.10;;;;;;;13.73;59.58;100402.53;7362025;19;20027;-63
2024/04/09 10:23:01;;;;;;;0.10;0.10;;;;;;;13.81;56.97;100389.09;7365359;19;20022;-62
2024/04/09 10:25:35;;;;;;;0.10;0.10;;;;;;;14.09;59.22;100391.44;7364169;19;20773;-63
2024/04/09 10:28:02;;;;;;;0.10;0.10;;;;;;;14.32;57.52;100393.06;7364079;19;20043;-62
2024/04/09 10:30:30;;;;;;;0.10;0.10;;;;;;;14.47;57.99;100374.06;7361644;19;20003;-62
2024/04/09 10:33:02;;;;;;;;;;;;;;;15.09;62.11;100401.06;7366636;19;20014;-63
2024/04/09 10:35:29;;;;;;;0.10;0.10;;;;;;;15.32;56.33;100403.47;7365539;19;19915;-63
2024/04/09 10:37:56;;;;;;;0.10;0.10;;;;;;;15.58;55.03;100386.44;7362550;19;20864;-62
2024/04/09 10:40:22;;;;;;;0.13;0.13;;;;;;;15.76;54.47;100420.72;7360215;19;20003;-62
2024/04/09 10:42:48;;;;;;;0.10;0.10;;;;;;;15.80;52.52;100406.50;7364103;19;20041;-63
2024/04/09 10:45:15;;;;;;;0.10;0.10;;;;;;;15.88;53.75;100400.84;7363358;19;20447;-63
2024/04/09 10:47:42;;;;;;;0.20;0.20;;;;;;;16.03;53.81;100408.00;7358104;19;20018;-62
2024/04/09 10:50:13;;;;;;;0.10;0.10;;;;;;;16.16;51.77;100418.75;7363144;19;20042;-61
2024/04/09 10:52:40;;;;;;;0.10;0.10;;;;;;;16.29;51.88;100420.69;7363130;19;20489;-61
2024/04/09 10:55:09;;;;;;;0.05;0.05;;;;;;;16.48;52.45;100425.03;7364059;19;20018;-62
2024/04/09 10:57:35;;;;;;;0.10;0.10;;;;;;;16.57;50.85;100419.28;7359347;19;20559;-62
2024/04/09 11:00:13;;;;;;;0.17;0.17;;;;;;;16.89;54.29;100435.25;7361285;19;20110;-62
2024/04/09 11:02:40;;;;;;;0.10;0.10;;;;;;;17.08;51.03;100435.94;7361100;19;20018;-62
2024/04/09 11:05:06;;;;;;;;;;;;;;;17.47;56.40;100422.34;7359611;19;20011;-62
2024/04/09 11:07:34;;;;;;;0.10;0.10;;;;;;;17.69;49.43;100443.16;7365530;19;19930;-62
2024/04/09 11:10:00;;;;;;;0.10;0.10;;;;;;;17.92;47.58;100427.81;7362106;19;20070;-63
2024/04/09 11:12:27;;;;;;;0.10;0.10;;;;;;;18.22;47.10;100433.94;7362696;19;20097;-61
2024/04/09 11:14:56;;;;;;;0.10;0.10;;;;;;;18.44;45.71;100451.19;7362184;19;20457;-63
2024/04/09 11:17:22;;;;;;;0.10;0.10;;;;;;;18.60;46.73;100441.38;7361754;19;20031;-63
2024/04/09 11:19:48;;;;;;;0.10;0.10;;;;;;;18.76;45.63;100452.78;7358421;19;20019;-62
2024/04/09 11:22:14;;;;;;;0.10;0.10;;;;;;;18.93;45.83;100455.25;7359633;19;20482;-62
2024/04/09 11:24:39;;;;;;;0.10;0.10;;;;;;;19.21;46.68;100466.78;7365025;19;20086;-63
2024/04/09 11:27:07;;;;;;;0.10;0.10;;;;;;;19.38;44.91;100449.84;7365009;19;20122;-62
2024/04/09 11:29:33;;;;;;;;;;;;;;;19.88;51.97;100473.13;7343810;19;20021;-63
2024/04/09 11:32:02;;;;;;;0.10;0.10;;;;;;;19.96;45.62;100472.59;7362416;19;20339;-62
2024/04/09 11:34:30;;;;;;;0.10;0.10;;;;;;;19.89;44.17;100463.38;7364313;19;20038;-62
2024/04/09 11:36:56;;;;;;;0.10;0.10;;;;;;;19.96;42.60;100473.44;7362003;19;20408;-62
2024/04/09 11:39:22;;;;;;;0.10;0.10;;;;;;;19.90;43.05;100470.34;7361664;19;20015;-63
2024/04/09 11:41:49;;;;;;;0.10;0.10;;;;;;;19.89;42.72;100482.75;7366097;19;20024;-62
2024/04/09 11:44:33;;;;;;;0.10;0.10;;;;;;;19.98;45.68;100497.22;7363404;19;20011;-63
2024/04/09 11:46:58;;;;;;;0.10;0.10;;;;;;;19.82;40.07;100507.97;7364618;19;20567;-62
2024/04/09 11:49:24;;;;;;;0.10;0.10;;;;;;;19.67;41.29;100520.41;7359244;19;20015;-62
2024/04/09 11:51:49;;;;;;;0.05;0.05;;;;;;;19.53;41.72;100522.19;7364250;19;20561;-62
2024/04/09 11:54:15;;;;;;;0.10;0.10;;;;;;;19.38;42.30;100529.28;7361124;19;20019;-62
2024/04/09 11:56:40;;;;;;;0.10;0.10;;;;;;;19.24;42.22;100538.06;7362939;19;20010;-62
2024/04/09 11:59:06;;;;;;;0.10;0.10;;;;;;;19.04;42.84;100514.59;7363966;19;20006;-62
2024/04/09 12:01:32;;;;;;;0.10;0.10;;;;;;;19.12;43.16;100531.72;7364281;19;20011;-63
2024/04/09 12:03:58;;;;;;;0.20;0.20;;;;;;;19.17;42.74;100524.38;7362738;19;20017;-62
2024/04/09 12:06:23;;;;;;;0.10;0.10;;;;;;;19.34;43.14;100528.59;7361676;19;20014;-62
2024/04/09 12:08:49;;;;;;;0.10;0.10;;;;;;;19.58;43.49;100520.09;7362471;19;20002;-62
2024/04/09 12:11:15;;;;;;;0.10;0.10;;;;;;;19.89;42.35;100527.81;7359598;19;20036;-61
2024/04/09 12:13:40;;;;;;;0.10;0.10;;;;;;;20.32;42.53;100532.97;7364200;19;20014;-62
2024/04/09 12:16:07;;;;;;;0.10;0.10;;;;;;;20.67;40.60;100527.13;7362137;19;20741;-62
2024/04/09 12:18:33;;;;;;;0.10;0.10;;;;;;;20.89;40.33;100542.47;7361859;19;20771;-62
2024/04/09 12:20:59;;;;;;;0.10;0.10;;;;;;;21.08;39.87;100558.81;7362091;19;20077;-62
2024/04/09 12:23:24;;;;;;;0.10;0.10;;;;;;;21.00;39.31;100550.56;7360446;19;20010;-62
2024/04/09 12:25:50;;;;;;;0.10;0.10;;;;;;;20.89;39.36;100545.13;7363300;19;20015;-62
2024/04/09 12:28:16;;;;;;;0.10;0.10;;;;;;;20.81;39.13;100548.28;7359646;19;20010;-63
2024/04/09 12:30:41;;;;;;;0.10;0.10;;;;;;;20.85;39.09;100549.78;7364911;19;20044;-62
2024/04/09 12:33:07;;;;;;;0.13;0.13;;;;;;;20.92;38.60;100542.25;7367990;19;20519;-62
2024/04/09 12:35:33;;;;;;;0.10;0.10;;;;;;;21.15;38.95;100553.97;7368576;19;20022;-62
2024/04/09 12:37:59;;;;;;;0.10;0.10;;;;;;;21.40;38.90;100564.59;7367282;19;20613;-63
2024/04/09 12:40:24;;;;;;;0.10;0.10;;;;;;;21.71;37.74;100567.75;7366851;19;20361;-62
2024/04/09 12:42:50;;;;;;;0.10;0.10;;;;;;;21.99;38.06;100558.63;7369591;19;20013;-62
2024/04/09 12:45:18;;;;;;;0.17;0.17;;;;;;;22.30;38.64;100565.25;7368625;19;20050;-62
2024/04/09 12:47:43;;;;;;;0.10;0.10;;;;;;;22.60;37.20;100563.91;7368184;19;20030;-62
2024/04/09 12:50:13;;;;;;;0.10;0.10;;;;;;;22.90;36.42;100569.63;7368059;19;20033;-61
2024/04/09 12:52:39;;;;;;;0.10;0.10;;;;;;;23.16;35.62;100572.94;7366999;19;20010;-63
2024/04/09 12:55:05;;;;;;;0.10;0.10;;;;;;;23.14;35.05;100534.09;7368763;19;20006;-62
2024/04/09 12:57:31;;;;;;;0.00;0.00;;;;;;;23.35;36.17;100579.50;7370002;19;20045;-63
2024/04/09 12:59:57;;;;;;;0.10;0.10;;;;;;;23.22;35.13;100559.16;7367997;19;20015;-62
2024/04/09 13:02:23;;;;;;;0.10;0.10;;;;;;;23.15;36.27;100583.72;7368230;19;20017;-63
2024/04/09 13:04:51;;;;;;;0.00;0.00;;;;;;;23.05;36.46;100611.06;7367119;19;20018;-62
2024/04/09 13:07:17;;;;;;;0.10;0.10;;;;;;;22.76;36.31;100610.59;7363276;19;20021;-62
2024/04/09 13:09:42;;;;;;;0.10;0.10;;;;;;;22.58;36.27;100600.47;7367461;19;20010;-62
2024/04/09 13:12:07;;;;;;;0.10;0.10;;;;;;;22.49;35.49;100629.44;7363785;19;20103;-62
2024/04/09 13:14:33;;;;;;;0.10;0.10;;;;;;;22.52;34.60;100610.59;7365246;19;20014;-62
2024/04/09 13:16:59;;;;;;;0.10;0.10;;;;;;;22.60;35.15;100635.78;7366987;19;20086;-63
2024/04/09 13:19:24;;;;;;;0.10;0.10;;;;;;;22.65;33.45;100612.34;7364746;19;20895;-62
2024/04/09 13:21:50;;;;;;;0.10;0.10;;;;;;;22.81;33.58;100647.53;7367640;19;20014;-63
2024/04/09 13:24:15;;;;;;;0.08;0.08;;;;;;;22.89;33.35;100652.28;7366324;19;20012;-62
2024/04/09 13:26:41;;;;;;;0.10;0.10;;;;;;;22.98;34.50;100659.59;7363479;19;20488;-62
2024/04/09 13:29:06;;;;;;;0.10;0.10;;;;;;;23.10;34.13;100645.34;7361418;19;20454;-62
2024/04/09 13:31:33;;;;;;;0.10;0.10;;;;;;;23.18;34.59;100647.44;7365939;19;20400;-63
2024/04/09 13:34:00;;;;;;;0.10;0.10;;;;;;;23.41;33.22;100649.16;7361922;19;20014;-62
2024/04/09 13:36:26;;;;;;;0.10;0.10;;;;;;;23.51;33.76;100650.16;7366537;19;20461;-62
2024/04/09 13:38:51;;;;;;;0.10;0.10;;;;;;;23.64;33.38;100649.25;7364606;19;20017;-62
2024/04/09 13:41:17;;;;;;;0.00;0.00;;;;;;;23.78;33.48;100646.34;7362720;19;20387;-62
2024/04/09 13:43:43;;;;;;;0.10;0.10;;;;;;;23.97;32.53;100643.91;7363547;19;20364;-62
2024/04/09 13:46:09;;;;;;;0.10;0.10;;;;;;;24.17;31.17;100662.78;7364338;19;20009;-61
2024/04/09 13:48:34;;;;;;;0.10;0.10;;;;;;;24.29;31.95;100669.84;7362343;19;20010;-63
2024/04/09 13:50:59;;;;;;;0.05;0.05;;;;;;;24.37;30.99;100650.53;7362794;19;20026;-62
2024/04/09 13:53:25;;;;;;;0.05;0.05;;;;;;;24.38;31.25;100677.13;7363071;19;20027;-62
2024/04/09 13:55:50;;;;;;;0.03;0.03;;;;;;;24.37;30.50;100686.09;7363789;19;20084;-62
2024/04/09 13:58:16;;;;;;;0.00;0.00;;;;;;;24.36;30.71;100679.06;7360059;19;20074;-62